Time;durP1;ratioP1;P1;durP2;ratioP2;P2;SDS_P1;SDS_P2;PMS_P1;PMS_P2;Temp;Humidity;BMP_temperature;BMP_pressure;BME280_temperature;BME280_humidity;BME280_pressure;Samples;Min_cycle;Max_cycle;Signal;HPM_P1;HPM_P2
2022/03/14 00:00:18;;;;;;;3.88;1.60;;;;;;;11.02;98.16;101340.72;5056791;28;20057;-81
2022/03/14 00:02:48;;;;;;;2.47;1.77;;;;;;;11.00;99.37;101337.19;5058792;28;20092;-80
2022/03/14 00:05:15;;;;;;;2.97;1.63;;;;;;;10.98;100.00;101348.25;5055867;28;20060;-80
2022/03/14 00:07:44;;;;;;;2.25;1.90;;;;;;;10.85;100.00;101334.63;5056976;28;20119;-80
2022/03/14 00:10:13;;;;;;;2.67;1.80;;;;;;;10.84;100.00;101342.94;5075014;28;20055;-80
2022/03/14 00:12:42;;;;;;;3.22;1.92;;;;;;;10.83;100.00;101349.41;5057850;28;20029;-80
2022/03/14 00:15:13;;;;;;;2.28;1.80;;;;;;;10.83;100.00;101350.25;5075769;28;20033;-79
2022/03/14 00:17:45;;;;;;;2.67;1.60;;;;;;;10.87;100.00;101355.53;5040958;28;20041;-79
2022/03/14 00:20:12;;;;;;;3.15;2.13;;;;;;;10.90;100.00;101360.78;5043439;28;20124;-80
2022/03/14 00:22:38;;;;;;;3.08;2.00;;;;;;;10.90;100.00;101367.13;5059149;28;20045;-80
2022/03/14 00:25:09;;;;;;;3.45;1.83;;;;;;;10.81;100.00;101365.06;5052510;28;20107;-80
2022/03/14 00:27:37;;;;;;;3.28;1.92;;;;;;;10.78;100.00;101357.94;5069609;28;20063;-79
2022/03/14 00:30:11;;;;;;;2.33;1.85;;;;;;;10.82;100.00;101370.44;5058622;28;20033;-79
2022/03/14 00:32:37;;;;;;;4.57;2.10;;;;;;;10.86;100.00;101382.03;5058409;28;20059;-80
2022/03/14 00:35:04;;;;;;;2.83;1.80;;;;;;;10.83;100.00;101385.88;5059075;28;20040;-78
2022/03/14 00:37:30;;;;;;;3.42;1.90;;;;;;;10.81;100.00;101387.84;5059683;28;20041;-79
2022/03/14 00:39:55;;;;;;;2.40;1.77;;;;;;;10.83;100.00;101388.63;5053526;28;20058;-79
2022/03/14 00:42:21;;;;;;;2.38;1.95;;;;;;;10.81;100.00;101390.59;5058214;28;20053;-80
2022/03/14 00:44:50;;;;;;;3.40;2.08;;;;;;;10.88;100.00;101398.38;5058224;28;20029;-81
2022/03/14 00:47:16;;;;;;;2.88;2.20;;;;;;;10.73;100.00;101384.78;5053887;28;20025;-80
2022/03/14 00:49:43;;;;;;;3.25;2.65;;;;;;;10.74;100.00;101382.91;5059232;28;20081;-80
2022/03/14 00:52:10;;;;;;;1.83;1.70;;;;;;;10.74;100.00;101391.13;5055548;28;20090;-79
2022/03/14 00:54:37;;;;;;;1.95;1.60;;;;;;;10.74;100.00;101399.34;5058673;28;20029;-79
2022/03/14 00:57:05;;;;;;;2.08;1.85;;;;;;;10.70;100.00;101403.31;5058750;28;20060;-81
2022/03/14 00:59:31;;;;;;;3.08;2.05;;;;;;;10.67;100.00;101404.38;5041657;28;20040;-80
2022/03/14 01:01:57;;;;;;;2.45;2.08;;;;;;;10.64;100.00;101404.59;5068202;28;20047;-80
2022/03/14 01:04:22;;;;;;;2.30;1.90;;;;;;;10.70;100.00;101414.25;5075550;28;20035;-81
2022/03/14 01:06:48;;;;;;;2.17;1.80;;;;;;;10.65;100.00;101409.97;5059389;28;20029;-80
2022/03/14 01:09:14;;;;;;;2.72;1.88;;;;;;;10.67;100.00;101415.34;5059018;28;20032;-80
2022/03/14 01:11:43;;;;;;;3.70;1.80;;;;;;;10.52;100.00;101389.91;5059651;28;20029;-81
2022/03/14 01:14:10;;;;;;;1.95;1.60;;;;;;;10.61;100.00;101416.66;5058645;28;20049;-80
2022/03/14 01:16:37;;;;;;;3.53;2.00;;;;;;;10.66;100.00;101430.03;5052494;28;20040;-80
2022/03/14 01:19:03;;;;;;;4.32;1.50;;;;;;;10.63;100.00;101424.78;5044462;28;20047;-80
2022/03/14 01:21:29;;;;;;;1.85;1.63;;;;;;;10.63;100.00;101419.28;5058250;28;20021;-80
2022/03/14 01:23:56;;;;;;;2.38;1.73;;;;;;;10.54;100.00;101414.44;5053399;28;20036;-79
2022/03/14 01:26:21;;;;;;;3.30;2.00;;;;;;;10.38;100.00;101392.75;5065945;28;20029;-80
2022/03/14 01:28:48;;;;;;;2.88;1.70;;;;;;;10.57;100.00;101430.66;5075080;28;20098;-79
2022/03/14 01:31:13;;;;;;;1.95;1.70;;;;;;;10.57;100.00;101430.66;5059213;28;20032;-80
2022/03/14 01:33:40;;;;;;;2.50;1.88;;;;;;;10.55;100.00;101439.00;5058025;28;20048;-80
2022/03/14 01:36:05;;;;;;;3.15;1.98;;;;;;;10.51;100.00;101451.16;5058582;28;20488;-80
2022/03/14 01:38:31;;;;;;;2.78;2.00;;;;;;;10.44;100.00;101445.19;5057918;28;20032;-80
2022/03/14 01:40:57;;;;;;;1.52;1.42;;;;;;;10.53;100.00;101456.53;5041281;28;20031;-80
2022/03/14 01:43:25;;;;;;;3.33;1.67;;;;;;;10.43;100.00;101456.28;5057828;28;20049;-80
2022/03/14 01:45:57;;;;;;;2.35;1.98;;;;;;;10.41;100.00;101455.50;5057567;28;20021;-80
2022/03/14 01:48:24;;;;;;;1.63;1.48;;;;;;;10.36;100.00;101446.72;5059540;28;20098;-80
2022/03/14 01:50:51;;;;;;;2.35;1.92;;;;;;;10.42;100.00;101451.78;5054630;28;20049;-79
2022/03/14 01:53:18;;;;;;;2.58;2.17;;;;;;;10.39;100.00;101447.38;5056865;28;20037;-79
2022/03/14 01:55:48;;;;;;;2.38;1.77;;;;;;;10.38;100.00;101452.97;5040212;28;20045;-79
2022/03/14 01:58:15;;;;;;;3.85;2.13;;;;;;;10.33;100.00;101441.47;5054638;28;20441;-80
2022/03/14 02:00:43;;;;;;;3.25;2.35;;;;;;;10.34;100.00;101443.22;5057822;28;20017;-80
2022/03/14 02:03:08;;;;;;;2.40;1.90;;;;;;;10.32;100.00;101448.81;5057391;28;20037;-79
2022/03/14 02:05:37;;;;;;;2.85;2.10;;;;;;;10.27;100.00;101449.06;5053325;28;20652;-80
2022/03/14 02:08:04;;;;;;;2.25;1.83;;;;;;;10.27;100.00;101446.34;5054492;28;20037;-80
2022/03/14 02:10:30;;;;;;;3.10;2.05;;;;;;;10.18;100.00;101446.09;5056928;28;20140;-80
2022/03/14 02:12:56;;;;;;;4.28;2.40;;;;;;;10.24;100.00;101448.41;5058755;28;20116;-80
2022/03/14 02:15:22;;;;;;;3.30;2.20;;;;;;;10.22;100.00;101450.38;5056955;28;20041;-80
2022/03/14 02:17:47;;;;;;;3.00;2.22;;;;;;;10.19;100.00;101458.81;5041799;28;20436;-79
2022/03/14 02:20:13;;;;;;;3.47;2.08;;;;;;;10.12;100.00;101456.47;5059026;28;20044;-79
2022/03/14 02:22:42;;;;;;;3.47;2.25;;;;;;;10.04;100.00;101457.97;5057523;28;20039;-80
2022/03/14 02:25:09;;;;;;;5.28;2.60;;;;;;;10.02;100.00;101458.09;5061707;28;20028;-80
2022/03/14 02:27:36;;;;;;;3.53;2.30;;;;;;;9.98;100.00;101456.53;5057563;28;20485;-80
2022/03/14 02:30:03;;;;;;;2.92;2.05;;;;;;;10.03;100.00;101461.69;5050033;28;20062;-80
2022/03/14 02:32:28;;;;;;;3.30;2.28;;;;;;;10.01;100.00;101474.59;5060340;28;20437;-78
2022/03/14 02:34:55;;;;;;;3.50;2.40;;;;;;;9.99;100.00;101474.69;5061289;28;20049;-80
2022/03/14 02:37:21;;;;;;;3.13;2.50;;;;;;;10.00;100.00;101484.69;5077049;28;20043;-79
2022/03/14 02:39:48;;;;;;;4.63;2.42;;;;;;;9.92;100.00;101463.28;5043949;28;20032;-80
2022/03/14 02:42:13;;;;;;;3.78;2.72;;;;;;;9.98;100.00;101481.13;5060539;28;20036;-80
2022/03/14 02:44:41;;;;;;;3.05;2.40;;;;;;;10.00;100.00;101475.56;5061721;28;20033;-80
2022/03/14 02:47:09;;;;;;;2.63;2.10;;;;;;;10.00;100.00;101479.19;5057692;28;20102;-80
2022/03/14 02:49:35;;;;;;;5.53;2.65;;;;;;;9.96;100.00;101484.97;5059714;28;20119;-79
2022/03/14 02:52:00;;;;;;;4.68;2.70;;;;;;;9.92;100.00;101484.31;5078375;28;20064;-80
2022/03/14 02:54:27;;;;;;;4.43;2.75;;;;;;;9.93;100.00;101484.19;5043600;28;20047;-79
2022/03/14 02:56:53;;;;;;;2.70;2.40;;;;;;;9.92;100.00;101487.91;5060642;28;20029;-80
2022/03/14 02:59:19;;;;;;;6.53;2.67;;;;;;;9.94;100.00;101488.69;5045661;28;20109;-79
2022/03/14 03:01:45;;;;;;;4.45;2.47;;;;;;;9.92;100.00;101485.19;5044611;28;20392;-79
2022/03/14 03:04:10;;;;;;;4.20;2.65;;;;;;;9.95;100.00;101497.75;5047384;28;20029;-81
2022/03/14 03:06:36;;;;;;;3.85;2.42;;;;;;;9.92;100.00;101501.59;5061058;28;20041;-81
2022/03/14 03:09:03;;;;;;;5.10;2.55;;;;;;;9.92;100.00;101496.13;5041239;28;20021;-80
2022/03/14 03:11:30;;;;;;;3.60;2.85;;;;;;;9.93;100.00;101506.06;5059650;28;20060;-79
2022/03/14 03:13:56;;;;;;;5.22;2.53;;;;;;;9.98;100.00;101510.38;5060908;28;20048;-79
2022/03/14 03:16:22;;;;;;;3.65;2.60;;;;;;;9.99;100.00;101513.00;5057003;28;20453;-79
2022/03/14 03:18:48;;;;;;;3.92;2.50;;;;;;;9.98;100.00;101521.31;5043993;28;20049;-79
2022/03/14 03:21:15;;;;;;;3.20;2.25;;;;;;;10.01;100.00;101526.56;5076952;28;20476;-79
2022/03/14 03:23:44;;;;;;;3.10;2.80;;;;;;;9.98;100.00;101538.59;5054426;28;20541;-79
2022/03/14 03:26:09;;;;;;;3.70;2.97;;;;;;;9.98;100.00;101548.66;5057840;28;20036;-79
2022/03/14 03:28:35;;;;;;;2.88;2.40;;;;;;;9.99;100.00;101551.31;5060980;28;20436;-79
2022/03/14 03:31:10;;;;;;;3.13;2.33;;;;;;;9.98;100.00;101565.06;5059457;28;20029;-79
2022/03/14 03:33:37;;;;;;;3.00;2.22;;;;;;;9.96;100.00;101567.03;5059118;28;20056;-78
2022/03/14 03:36:04;;;;;;;2.80;2.50;;;;;;;9.91;100.00;101575.53;5060196;28;20040;-81
2022/03/14 03:38:29;;;;;;;3.42;2.33;;;;;;;9.88;100.00;101575.75;5060144;28;20044;-78
2022/03/14 03:40:55;;;;;;;4.95;2.58;;;;;;;9.85;100.00;101584.13;5060918;28;20025;-79
2022/03/14 03:43:21;;;;;;;2.85;2.25;;;;;;;9.84;100.00;101587.84;5071363;28;20039;-78
2022/03/14 03:45:46;;;;;;;3.58;2.47;;;;;;;9.80;100.00;101597.22;5059217;28;20035;-80
2022/03/14 03:48:12;;;;;;;4.28;2.65;;;;;;;9.77;100.00;101601.03;5059007;28;20057;-78
2022/03/14 03:50:38;;;;;;;4.47;2.42;;;;;;;9.72;100.00;101597.72;5058619;28;20048;-79
2022/03/14 03:53:03;;;;;;;2.47;2.28;;;;;;;9.66;100.00;101607.19;5059742;28;20084;-81
2022/03/14 03:55:29;;;;;;;4.18;2.80;;;;;;;9.67;100.00;101628.06;5075948;28;20079;-80
2022/03/14 03:57:54;;;;;;;3.38;2.58;;;;;;;9.56;100.00;101627.91;5061612;28;20033;-79
2022/03/14 04:00:20;;;;;;;4.50;2.75;;;;;;;9.54;100.00;101632.56;5075818;28;20045;-80
2022/03/14 04:02:46;;;;;;;3.38;2.72;;;;;;;9.52;100.00;101631.78;5048407;28;20021;-80
2022/03/14 04:05:14;;;;;;;3.15;2.85;;;;;;;9.51;100.00;101632.75;5043585;28;20052;-80
2022/03/14 04:07:42;;;;;;;5.60;3.20;;;;;;;9.48;100.00;101630.22;5060855;28;20392;-80
2022/03/14 04:10:09;;;;;;;4.30;2.80;;;;;;;9.43;100.00;101643.28;5077182;28;20064;-80
2022/03/14 04:12:40;;;;;;;3.53;2.60;;;;;;;9.38;100.00;101632.66;5076111;28;20032;-79
2022/03/14 04:15:09;;;;;;;4.85;2.78;;;;;;;9.51;100.00;101660.97;5071201;28;20041;-81
2022/03/14 04:17:43;;;;;;;2.95;2.75;;;;;;;9.48;100.00;101660.31;5069214;28;20041;-80
2022/03/14 04:20:13;;;;;;;3.40;2.75;;;;;;;9.49;100.00;101659.31;5059586;28;20146;-80
2022/03/14 04:22:39;;;;;;;4.10;2.90;;;;;;;9.45;100.00;101666.81;5040975;28;20051;-80
2022/03/14 04:25:06;;;;;;;4.40;3.13;;;;;;;9.44;100.00;101670.53;5073462;28;20045;-81
2022/03/14 04:27:33;;;;;;;4.07;3.42;;;;;;;9.37;100.00;101674.59;5059906;28;20032;-80
2022/03/14 04:29:59;;;;;;;6.85;3.97;;;;;;;9.31;100.00;101675.88;5059544;28;20045;-79
2022/03/14 04:32:26;;;;;;;5.38;3.83;;;;;;;9.22;100.00;101675.56;5057978;28;20029;-79
2022/03/14 04:34:51;;;;;;;6.55;4.43;;;;;;;9.17;100.00;101684.03;5038289;28;20132;-80
2022/03/14 04:37:17;;;;;;;7.55;3.70;;;;;;;9.10;100.00;101679.88;5060078;28;20056;-80
2022/03/14 04:39:43;;;;;;;9.13;4.13;;;;;;;9.07;100.00;101677.31;5060663;28;20028;-82
2022/03/14 04:42:10;;;;;;;5.40;3.95;;;;;;;9.17;100.00;101694.94;5061006;28;20044;-80
2022/03/14 04:44:36;;;;;;;6.72;3.80;;;;;;;9.25;100.00;101695.38;5054007;28;20033;-80
2022/03/14 04:47:02;;;;;;;6.25;4.47;;;;;;;9.17;100.00;101701.28;5042744;28;20473;-80
2022/03/14 04:49:28;;;;;;;6.05;3.88;;;;;;;9.17;100.00;101705.88;5062543;28;20436;-80
2022/03/14 04:51:55;;;;;;;6.90;4.82;;;;;;;9.09;100.00;101702.72;5056852;28;20055;-80
2022/03/14 04:54:21;;;;;;;4.88;4.20;;;;;;;9.02;100.00;101708.53;5045017;28;20061;-80
2022/03/14 04:56:47;;;;;;;7.85;4.45;;;;;;;9.11;100.00;101717.16;5074510;28;20049;-80
2022/03/14 04:59:13;;;;;;;5.22;4.57;;;;;;;9.07;100.00;101715.56;5061275;28;20118;-81
2022/03/14 05:01:39;;;;;;;7.30;4.63;;;;;;;9.05;100.00;101721.16;5060135;28;20093;-79
2022/03/14 05:04:05;;;;;;;9.27;4.90;;;;;;;9.12;100.00;101730.75;5057003;28;20114;-79
2022/03/14 05:06:32;;;;;;;9.07;4.65;;;;;;;9.08;100.00;101736.47;5061743;28;20096;-80
2022/03/14 05:08:58;;;;;;;7.45;4.80;;;;;;;9.06;100.00;101736.56;5053396;28;20071;-80
2022/03/14 05:11:25;;;;;;;8.00;5.20;;;;;;;8.86;100.00;101715.00;5052685;28;20575;-81
2022/03/14 05:13:50;;;;;;;7.90;5.07;;;;;;;9.04;100.00;101748.56;5059041;28;20025;-81
2022/03/14 05:16:15;;;;;;;7.82;5.15;;;;;;;9.08;100.00;101753.72;5043255;28;20035;-80
2022/03/14 05:18:41;;;;;;;10.35;5.50;;;;;;;9.10;100.00;101760.00;5059364;28;20044;-79
2022/03/14 05:21:07;;;;;;;9.48;5.07;;;;;;;9.04;100.00;101764.94;5058784;28;20032;-79
2022/03/14 05:23:33;;;;;;;9.00;5.55;;;;;;;8.99;100.00;101757.00;5049297;28;20029;-79
2022/03/14 05:25:59;;;;;;;7.97;5.40;;;;;;;9.04;100.00;101767.69;5051714;28;20556;-79
2022/03/14 05:28:25;;;;;;;9.40;6.40;;;;;;;9.09;100.00;101784.69;5072319;28;20052;-79
2022/03/14 05:30:51;;;;;;;9.57;6.13;;;;;;;8.99;100.00;101779.72;5056280;28;20025;-80
2022/03/14 05:33:16;;;;;;;10.93;6.60;;;;;;;9.02;100.00;101785.03;5041034;28;20041;-80
2022/03/14 05:35:42;;;;;;;9.70;6.05;;;;;;;9.01;100.00;101791.44;5054995;28;20056;-81
2022/03/14 05:38:08;;;;;;;9.38;6.07;;;;;;;8.98;100.00;101791.63;5071167;28;20016;-80
2022/03/14 05:40:34;;;;;;;10.98;7.28;;;;;;;9.10;100.00;101806.44;5052604;28;20045;-79
2022/03/14 05:43:05;;;;;;;11.18;6.60;;;;;;;8.99;100.00;101806.19;5038925;28;20025;-80
2022/03/14 05:45:31;;;;;;;14.00;7.43;;;;;;;8.97;100.00;101810.84;5032469;28;20046;-80
2022/03/14 05:47:56;;;;;;;13.63;7.55;;;;;;;8.88;100.00;101798.59;5056205;28;20033;-79
2022/03/14 05:50:24;;;;;;;12.05;7.50;;;;;;;8.88;100.00;101801.31;5061038;28;20036;-81
2022/03/14 05:52:51;;;;;;;14.38;8.18;;;;;;;8.95;100.00;101827.34;5078202;28;20051;-80
2022/03/14 05:55:16;;;;;;;15.90;7.60;;;;;;;8.92;100.00;101816.56;5044341;28;20049;-82
2022/03/14 05:57:42;;;;;;;15.77;8.93;;;;;;;8.87;100.00;101821.41;5060206;28;20051;-80
2022/03/14 06:00:09;;;;;;;14.60;8.20;;;;;;;8.93;100.00;101831.97;5063701;28;20025;-81
2022/03/14 06:02:36;;;;;;;13.55;8.60;;;;;;;8.87;100.00;101826.88;5031152;28;20059;-80
2022/03/14 06:05:02;;;;;;;18.27;9.52;;;;;;;8.94;100.00;101836.47;5067960;28;20033;-80
2022/03/14 06:07:27;;;;;;;13.70;9.55;;;;;;;8.90;100.00;101840.34;5045981;28;20159;-80
2022/03/14 06:09:53;;;;;;;18.15;9.25;;;;;;;8.92;100.00;101842.97;5063068;28;20488;-81
2022/03/14 06:12:25;;;;;;;19.38;10.43;;;;;;;8.92;100.00;101848.44;5062426;28;20033;-81
2022/03/14 06:14:56;;;;;;;19.55;10.80;;;;;;;8.94;100.00;101857.47;5063351;28;20033;-81
2022/03/14 06:17:22;;;;;;;20.42;9.52;;;;;;;8.90;100.00;101856.72;5064425;28;20090;-80
2022/03/14 06:19:48;;;;;;;20.73;10.52;;;;;;;8.87;100.00;101843.28;5058358;28;20012;-80
2022/03/14 06:22:19;;;;;;;17.45;10.88;;;;;;;8.88;100.00;101858.66;5064590;28;20128;-84
2022/03/14 06:24:47;;;;;;;18.48;12.20;;;;;;;8.89;100.00;101863.19;5076871;28;20100;-83
2022/03/14 06:27:16;;;;;;;20.27;12.10;;;;;;;8.88;100.00;101866.00;5061624;28;20029;-82
2022/03/14 06:29:42;;;;;;;25.83;12.95;;;;;;;8.88;100.00;101861.41;5047580;28;20067;-82
2022/03/14 06:32:09;;;;;;;27.52;11.52;;;;;;;8.94;100.00;101876.59;5077042;28;20028;-83
2022/03/14 06:34:35;;;;;;;21.63;12.25;;;;;;;8.91;100.00;101884.94;5058308;28;20059;-82
2022/03/14 06:37:00;;;;;;;24.15;12.32;;;;;;;8.90;100.00;101873.13;5064737;28;20109;-84
2022/03/14 06:39:26;;;;;;;22.98;11.65;;;;;;;8.87;100.00;101881.50;5062887;28;20021;-82
2022/03/14 06:41:52;;;;;;;24.30;12.82;;;;;;;8.96;100.00;101896.50;5062824;28;20037;-82
2022/03/14 06:44:19;;;;;;;22.20;12.05;;;;;;;8.90;100.00;101889.50;5065232;28;20029;-82
2022/03/14 06:46:45;;;;;;;24.45;12.45;;;;;;;9.00;100.00;101898.06;5063547;28;20396;-82
2022/03/14 06:49:14;;;;;;;21.85;12.38;;;;;;;8.98;100.00;101902.75;5064176;28;20043;-82
2022/03/14 06:51:41;;;;;;;26.10;12.48;;;;;;;8.98;100.00;101908.19;5075793;28;20041;-82
2022/03/14 06:54:07;;;;;;;20.42;12.13;;;;;;;8.97;100.00;101903.72;5047465;28;20032;-82
2022/03/14 06:56:33;;;;;;;22.42;12.38;;;;;;;8.96;100.00;101901.94;5063537;28;20024;-82
2022/03/14 06:58:58;;;;;;;23.75;12.93;;;;;;;9.00;100.00;101906.25;5045926;28;20025;-82
2022/03/14 07:01:24;;;;;;;22.30;13.15;;;;;;;8.95;100.00;101901.09;5062678;28;20075;-82
2022/03/14 07:03:50;;;;;;;24.05;13.18;;;;;;;9.00;100.00;101907.16;5050245;28;20507;-82
2022/03/14 07:06:17;;;;;;;22.70;13.02;;;;;;;9.05;100.00;101920.56;5075458;28;20029;-82
2022/03/14 07:08:42;;;;;;;25.23;13.55;;;;;;;9.08;100.00;101919.50;5066237;28;20027;-83
2022/03/14 07:11:08;;;;;;;27.75;13.48;;;;;;;8.98;100.00;101914.53;5044645;28;20052;-83
2022/03/14 07:13:34;;;;;;;19.50;11.63;;;;;;;8.96;100.00;101916.47;5064370;28;20112;-83
2022/03/14 07:15:59;;;;;;;25.55;13.07;;;;;;;9.01;100.00;101919.84;5064062;28;20085;-82
2022/03/14 07:18:25;;;;;;;22.33;12.93;;;;;;;9.02;100.00;101923.47;5064261;28;20119;-82
2022/03/14 07:20:50;;;;;;;22.42;12.23;;;;;;;9.04;100.00;101923.38;5064840;28;20085;-83
2022/03/14 07:23:15;;;;;;;23.95;12.65;;;;;;;8.94;100.00;101907.50;5061073;28;20090;-82
2022/03/14 07:25:41;;;;;;;23.73;12.75;;;;;;;9.09;100.00;101929.47;5062259;28;20029;-82
2022/03/14 07:28:09;;;;;;;21.80;13.20;;;;;;;9.10;100.00;101928.47;5064118;28;20037;-83
2022/03/14 07:30:36;;;;;;;24.85;12.80;;;;;;;9.19;100.00;101928.84;5080727;28;20105;-83
2022/03/14 07:33:02;;;;;;;21.40;11.93;;;;;;;9.08;100.00;101914.91;5047476;28;20048;-82
2022/03/14 07:35:29;;;;;;;27.20;12.68;;;;;;;9.14;100.00;101927.38;5077279;28;20030;-84
2022/03/14 07:37:55;;;;;;;32.83;12.88;;;;;;;9.19;100.00;101930.72;5063584;28;20028;-80
2022/03/14 07:40:21;;;;;;;26.23;12.98;;;;;;;9.15;100.00;101940.03;5057027;28;20036;-79
2022/03/14 07:42:49;;;;;;;20.35;13.27;;;;;;;9.15;100.00;101943.66;5052371;28;20089;-79
2022/03/14 07:45:17;;;;;;;32.72;13.05;;;;;;;9.17;100.00;101952.66;5060453;28;20045;-78
2022/03/14 07:47:43;;;;;;;24.88;13.85;;;;;;;9.15;100.00;101942.78;5058007;28;20441;-79
2022/03/14 07:50:11;;;;;;;29.73;13.13;;;;;;;9.16;100.00;101950.88;5042612;28;20033;-81
2022/03/14 07:52:37;;;;;;;23.88;13.38;;;;;;;9.19;100.00;101953.44;5046891;28;20128;-83
2022/03/14 07:55:07;;;;;;;26.60;11.95;;;;;;;9.23;100.00;101961.47;5062889;28;20033;-82
2022/03/14 07:57:36;;;;;;;23.27;12.73;;;;;;;9.18;100.00;101957.16;5046925;28;20028;-82
2022/03/14 08:00:04;;;;;;;24.75;12.35;;;;;;;9.27;100.00;101969.44;5079993;28;20048;-81
2022/03/14 08:02:34;;;;;;;23.80;12.90;;;;;;;9.26;100.00;101970.38;5048011;28;20143;-81
2022/03/14 08:05:00;;;;;;;23.35;12.63;;;;;;;9.34;100.00;101981.78;5046375;28;20025;-82
2022/03/14 08:07:26;;;;;;;31.80;13.05;;;;;;;9.38;100.00;101983.38;5046583;28;20442;-83
2022/03/14 08:09:52;;;;;;;24.65;14.00;;;;;;;9.50;100.00;101995.47;5060809;28;20037;-82
2022/03/14 08:12:17;;;;;;;22.50;12.27;;;;;;;9.45;100.00;101983.91;5062332;28;20048;-81
2022/03/14 08:14:43;;;;;;;25.77;12.85;;;;;;;9.40;100.00;101993.34;5084813;28;20033;-81
2022/03/14 08:17:09;;;;;;;26.02;13.35;;;;;;;9.41;100.00;102000.56;5046443;28;20704;-82
2022/03/14 08:19:35;;;;;;;29.08;12.15;;;;;;;9.53;100.00;101991.69;5062610;28;20021;-81
2022/03/14 08:22:04;;;;;;;23.98;12.77;;;;;;;9.75;100.00;102013.22;5079847;28;20072;-81
2022/03/14 08:24:30;;;;;;;30.33;12.85;;;;;;;9.71;100.00;102009.78;5047516;28;20037;-80
2022/03/14 08:26:56;;;;;;;30.08;13.13;;;;;;;9.69;100.00;101992.59;5066603;28;20389;-79
2022/03/14 08:29:22;;;;;;;28.48;11.68;;;;;;;9.84;100.00;102009.97;5077834;28;20032;-79
2022/03/14 08:31:57;;;;;;;30.25;11.82;;;;;;;9.89;100.00;102015.19;5076271;27;20406;-80
2022/03/14 08:34:22;;;;;;;22.48;10.82;;;;;;;9.90;100.00;102006.88;5108663;27;20070;-80
2022/03/14 08:36:48;;;;;;;21.52;11.02;;;;;;;10.05;100.00;102012.41;5078289;28;20041;-81
2022/03/14 08:39:13;;;;;;;18.08;10.18;;;;;;;10.13;100.00;102029.25;5146211;27;20078;-81
2022/03/14 08:41:40;;;;;;;16.65;9.10;;;;;;;9.99;100.00;102019.13;5095543;27;20027;-81
2022/03/14 08:44:07;;;;;;;27.38;11.32;;;;;;;10.07;100.00;102032.38;5057421;28;20025;-80
2022/03/14 08:46:34;;;;;;;21.17;11.13;;;;;;;10.13;100.00;102032.00;5069913;27;20034;-82
2022/03/14 08:48:59;;;;;;;21.17;11.57;;;;;;;10.26;100.00;102033.06;5067916;27;20041;-82
2022/03/14 08:51:26;;;;;;;21.20;11.45;;;;;;;10.26;100.00;102037.66;5139261;27;20030;-79
2022/03/14 08:53:52;;;;;;;26.30;11.77;;;;;;;10.26;100.00;102043.13;5061746;27;20042;-82
2022/03/14 08:56:17;;;;;;;29.02;11.30;;;;;;;10.36;100.00;102051.72;5074877;27;20029;-81
2022/03/14 08:58:43;;;;;;;22.88;10.73;;;;;;;10.32;100.00;102056.47;5091556;27;20089;-81
2022/03/14 09:01:11;;;;;;;23.40;10.88;;;;;;;10.38;100.00;102053.41;5064136;27;20046;-81
2022/03/14 09:03:38;;;;;;;18.20;9.65;;;;;;;10.60;100.00;102060.31;5070677;27;20036;-82
2022/03/14 09:06:04;;;;;;;21.17;9.65;;;;;;;10.52;100.00;102063.50;5147872;27;20009;-82
2022/03/14 09:08:31;;;;;;;18.77;10.38;;;;;;;10.64;100.00;102071.00;5045714;28;20528;-81
2022/03/14 09:11:00;;;;;;;20.85;10.77;;;;;;;10.74;100.00;102062.22;5048624;28;20052;-81
2022/03/14 09:13:26;;;;;;;19.35;9.90;;;;;;;10.84;100.00;102080.75;5106033;28;20037;-82
2022/03/14 09:15:52;;;;;;;18.25;10.23;;;;;;;10.61;100.00;102090.38;5059730;28;20084;-82
2022/03/14 09:18:17;;;;;;;21.77;11.38;;;;;;;10.52;100.00;102084.56;5029289;28;20067;-80
2022/03/14 09:20:47;;;;;;;22.27;11.98;;;;;;;10.41;100.00;102093.38;5040390;28;20029;-80
2022/03/14 09:23:13;;;;;;;21.90;10.88;;;;;;;10.32;100.00;102081.13;5047091;28;20028;-83
2022/03/14 09:25:38;;;;;;;27.05;11.25;;;;;;;10.40;100.00;102099.84;5072261;27;20029;-83
2022/03/14 09:28:04;;;;;;;22.35;11.52;;;;;;;10.77;100.00;102112.25;5035415;28;20374;-83
2022/03/14 09:30:29;;;;;;;24.20;11.80;;;;;;;10.79;100.00;102103.91;5034526;28;20033;-83
2022/03/14 09:32:56;;;;;;;25.33;11.18;;;;;;;10.93;100.00;102116.81;5041173;28;20033;-82
2022/03/14 09:35:23;;;;;;;24.20;11.05;;;;;;;10.66;100.00;102120.22;5056449;28;20041;-82
2022/03/14 09:37:49;;;;;;;22.65;11.05;;;;;;;10.55;100.00;102117.25;5051809;28;20049;-81
2022/03/14 09:40:18;;;;;;;23.08;11.05;;;;;;;10.52;100.00;102118.28;5049561;28;20026;-81
2022/03/14 09:42:46;;;;;;;23.92;9.88;;;;;;;10.66;100.00;102121.09;5021666;28;20105;-81
2022/03/14 09:45:14;;;;;;;21.35;9.07;;;;;;;10.72;100.00;102127.19;5024653;28;20061;-82
2022/03/14 09:47:49;;;;;;;19.83;10.50;;;;;;;10.63;100.00;102139.56;5042397;28;20026;-81
2022/03/14 09:50:23;;;;;;;17.70;9.52;;;;;;;10.59;100.00;102146.19;5030321;28;20026;-82
2022/03/14 09:52:49;;;;;;;20.42;8.77;;;;;;;10.52;100.00;102144.78;5035387;28;20037;-82
2022/03/14 09:55:16;;;;;;;18.75;9.20;;;;;;;10.46;100.00;102138.72;5015891;28;20018;-82
2022/03/14 09:57:41;;;;;;;21.33;9.63;;;;;;;10.62;100.00;102151.50;5017573;28;20053;-81
2022/03/14 10:00:15;;;;;;;28.23;9.98;;;;;;;10.81;100.00;102154.91;5014438;28;20044;-82
2022/03/14 10:02:45;;;;;;;22.45;9.32;;;;;;;10.95;100.00;102150.47;5046032;28;20041;-82
2022/03/14 10:05:13;;;;;;;20.27;8.60;;;;;;;11.00;100.00;102162.03;5030006;28;20136;-81
2022/03/14 10:07:43;;;;;;;17.70;8.50;;;;;;;11.20;100.00;102169.94;5045795;28;20037;-81
2022/03/14 10:10:09;;;;;;;18.85;8.57;;;;;;;11.59;100.00;102173.06;5047791;28;20059;-82
2022/03/14 10:12:35;;;;;;;15.98;9.23;;;;;;;11.77;100.00;102171.03;5030301;28;20048;-81
2022/03/14 10:15:05;;;;;;;17.70;8.35;;;;;;;12.14;100.00;102177.81;5043952;28;20055;-81
2022/03/14 10:17:31;;;;;;;19.27;7.07;;;;;;;12.45;98.05;102184.06;5040607;28;20021;-79
2022/03/14 10:20:00;;;;;;;16.85;6.25;;;;;;;11.82;99.58;102182.59;5048196;28;20041;-80
2022/03/14 10:22:47;;;;;;;15.32;6.80;;;;;;;11.63;100.00;102190.25;5033793;28;20060;-82
2022/03/14 10:25:15;;;;;;;17.83;6.57;;;;;;;11.52;100.00;102183.53;5019934;28;20056;-83
2022/03/14 10:27:44;;;;;;;19.33;7.03;;;;;;;11.37;100.00;102195.47;5020429;28;20041;-83
2022/03/14 10:30:31;;;;;;;15.38;7.25;;;;;;;11.28;100.00;102196.00;5035835;28;20042;-83
2022/03/14 10:33:17;;;;;;;12.80;6.60;;;;;;;11.35;100.00;102197.41;5029586;28;20040;-81
2022/03/14 10:35:44;;;;;;;23.42;6.13;;;;;;;11.35;100.00;102201.03;5035032;28;20072;-82
2022/03/14 10:38:13;;;;;;;14.68;5.80;;;;;;;11.50;100.00;102198.34;5043205;28;20052;-82
2022/03/14 10:40:44;;;;;;;13.48;5.10;;;;;;;11.74;97.31;102195.91;5026035;28;20024;-82
2022/03/14 10:43:35;;;;;;;10.23;5.20;;;;;;;11.67;96.45;102195.41;5030409;28;20039;-82
2022/03/14 10:46:04;;;;;;;12.98;4.63;;;;;;;11.76;96.87;102207.69;5019615;28;20030;-81
2022/03/14 10:48:38;;;;;;;12.48;5.18;;;;;;;11.63;95.85;102204.81;5046042;27;20034;-82
2022/03/14 10:51:07;;;;;;;12.30;4.97;;;;;;;11.54;96.89;102220.00;5110051;27;20053;-82
2022/03/14 10:53:34;;;;;;;8.93;4.32;;;;;;;11.44;95.81;102215.16;5033855;28;20048;-81
2022/03/14 10:56:01;;;;;;;7.63;3.72;;;;;;;11.45;94.64;102219.69;5035831;28;20546;-81
2022/03/14 10:58:33;;;;;;;10.10;4.40;;;;;;;11.69;93.76;102226.41;5019248;27;20034;-82
2022/03/14 11:01:00;;;;;;;10.80;4.60;;;;;;;12.44;91.60;102223.50;5034554;28;20022;-82
2022/03/14 11:03:30;;;;;;;10.23;4.65;;;;;;;12.62;90.10;102226.03;5038871;28;20062;-80
2022/03/14 11:06:03;;;;;;;11.40;4.57;;;;;;;12.27;90.27;102232.84;5012084;28;20034;-79
2022/03/14 11:08:30;;;;;;;;;;;;;;;12.08;91.14;102226.75;5034854;28;20032;-80
2022/03/14 11:10:57;;;;;;;12.13;4.45;;;;;;;11.91;92.50;102228.72;5019802;28;19964;-81
2022/03/14 11:13:23;;;;;;;10.00;4.68;;;;;;;11.67;92.97;102228.34;5016424;28;20090;-82
2022/03/14 11:15:49;;;;;;;14.00;5.00;;;;;;;11.67;93.55;102238.44;5032776;28;20030;-80